Time;durP1;ratioP1;P1;durP2;ratioP2;P2;SDS_P1;SDS_P2;PMS_P1;PMS_P2;Temp;Humidity;BMP_temperature;BMP_pressure;BME280_temperature;BME280_humidity;BME280_pressure;Samples;Min_cycle;Max_cycle;Signal;HPM_P1;HPM_P2
2022/01/07 00:02:24;;;;;;;65.40;28.17;;;;;;;-0.06;71.30;99501.75;5169841;28;20045;-81
2022/01/07 00:05:15;;;;;;;56.85;25.05;;;;;;;-0.21;71.21;99498.00;5159737;28;20072;-80
2022/01/07 00:08:06;;;;;;;56.67;24.48;;;;;;;-0.05;72.42;99516.47;5154888;28;20045;-81
2022/01/07 00:10:57;;;;;;;49.40;23.55;;;;;;;-0.10;71.59;99497.53;5153275;28;20069;-81
2022/01/07 00:13:47;;;;;;;50.22;23.10;;;;;;;-0.13;72.13;99503.75;5168984;28;20127;-80
2022/01/07 00:16:37;;;;;;;45.83;22.00;;;;;;;-0.44;73.31;99505.91;5162218;28;20050;-83
2022/01/07 00:19:28;;;;;;;46.00;21.63;;;;;;;-0.43;73.39;99494.56;5193671;28;20049;-83
2022/01/07 00:22:18;;;;;;;53.50;23.02;;;;;;;-0.28;72.28;99488.75;5153124;28;20053;-83
2022/01/07 00:25:11;;;;;;;49.05;23.83;;;;;;;-0.31;71.70;99468.88;5179389;28;20428;-83
2022/01/07 00:28:01;;;;;;;49.70;23.67;;;;;;;-0.40;71.78;99437.13;5192122;28;20054;-84
2022/01/07 00:30:52;;;;;;;48.90;24.00;;;;;;;-0.24;72.04;99469.47;5171792;28;20045;-84
2022/01/07 00:33:42;;;;;;;51.75;22.38;;;;;;;-0.33;71.15;99444.66;5159497;28;20428;-83
2022/01/07 00:36:33;;;;;;;76.15;26.27;;;;;;;-0.27;72.90;99475.63;5159905;28;20180;-84
2022/01/07 00:39:23;;;;;;;110.28;28.23;;;;;;;-0.49;72.31;99446.19;5176017;28;20115;-84
2022/01/07 00:42:13;;;;;;;54.85;27.55;;;;;;;-0.48;73.89;99477.38;5171986;28;20119;-81
2022/01/07 00:45:04;;;;;;;65.15;26.77;;;;;;;0.01;72.23;99473.66;5173555;28;20053;-81
2022/01/07 00:47:55;;;;;;;64.93;27.02;;;;;;;-0.09;72.15;99458.41;5173068;28;20128;-83
2022/01/07 00:50:45;;;;;;;53.97;26.27;;;;;;;-0.24;71.79;99457.28;5173357;28;20119;-83
2022/01/07 00:53:36;;;;;;;62.63;25.52;;;;;;;-0.36;72.17;99465.63;5158588;28;20050;-80
2022/01/07 00:56:26;;;;;;;52.80;25.00;;;;;;;-0.40;72.02;99457.97;5159206;28;20048;-82
2022/01/07 00:59:15;;;;;;;50.90;24.98;;;;;;;-0.35;71.82;99453.44;5174639;28;20042;-83
2022/01/07 01:02:05;;;;;;;52.72;25.40;;;;;;;-0.30;71.37;99449.75;5144376;28;20159;-82
2022/01/07 01:05:06;;;;;;;55.45;23.92;;;;;;;-0.07;72.33;99468.75;5162772;28;20071;-82
2022/01/07 01:07:56;;;;;;;62.97;25.63;;;;;;;-0.36;71.65;99460.41;5161673;28;20046;-81
2022/01/07 01:10:46;;;;;;;52.53;22.90;;;;;;;-0.49;71.44;99439.22;5170946;28;20144;-80
2022/01/07 01:13:37;;;;;;;51.10;24.42;;;;;;;-0.55;70.60;99449.91;5157920;28;20042;-81
2022/01/07 01:16:27;;;;;;;53.63;22.35;;;;;;;-0.59;71.80;99435.31;5154283;28;20074;-82
2022/01/07 01:19:18;;;;;;;46.53;21.85;;;;;;;-0.62;70.71;99432.84;5174064;28;20077;-80
2022/01/07 01:22:09;;;;;;;47.72;22.42;;;;;;;-0.55;71.19;99446.44;5162304;28;20065;-81
2022/01/07 01:24:59;;;;;;;42.55;20.70;;;;;;;-0.39;71.75;99444.06;5166425;28;20519;-80
2022/01/07 01:27:49;;;;;;;52.17;20.63;;;;;;;-0.15;71.21;99440.41;5155844;28;20061;-81
2022/01/07 01:30:39;;;;;;;45.47;19.70;;;;;;;-0.40;71.89;99424.13;5171368;28;20539;-81
2022/01/07 01:33:30;;;;;;;50.92;23.40;;;;;;;-0.76;72.54;99440.38;5170843;28;20057;-80
2022/01/07 01:36:20;;;;;;;50.13;23.35;;;;;;;-0.74;72.81;99425.50;5170610;28;20046;-80
2022/01/07 01:39:12;;;;;;;47.75;22.17;;;;;;;-0.54;71.95;99415.13;5170182;28;20077;-81
2022/01/07 01:42:03;;;;;;;50.42;23.60;;;;;;;-0.21;71.72;99424.19;5161769;28;20141;-81
2022/01/07 01:44:53;;;;;;;47.30;21.80;;;;;;;-0.15;71.00;99395.25;5154293;28;20060;-82
2022/01/07 01:47:44;;;;;;;63.53;22.38;;;;;;;0.17;71.73;99432.97;5201177;28;20054;-80
2022/01/07 01:50:34;;;;;;;46.80;23.40;;;;;;;0.05;71.36;99433.50;5156443;28;20045;-81
2022/01/07 01:53:25;;;;;;;50.55;22.58;;;;;;;-0.18;72.07;99445.75;5149877;28;20105;-82
2022/01/07 01:56:15;;;;;;;44.58;22.25;;;;;;;-0.52;71.10;99402.06;5176056;28;20048;-81
2022/01/07 01:59:05;;;;;;;48.25;21.50;;;;;;;-0.41;71.43;99417.22;5166046;28;20116;-81
2022/01/07 02:01:55;;;;;;;48.70;22.67;;;;;;;-0.65;73.04;99411.28;5144725;28;20064;-81
2022/01/07 02:04:46;;;;;;;53.15;22.75;;;;;;;-0.43;72.53;99412.09;5169364;28;20044;-81
2022/01/07 02:07:39;;;;;;;47.58;22.00;;;;;;;-0.53;71.32;99395.13;5156319;28;20044;-80
2022/01/07 02:10:29;;;;;;;46.22;20.95;;;;;;;-0.52;72.05;99386.41;5185344;28;20056;-81
2022/01/07 02:13:19;;;;;;;42.53;19.90;;;;;;;-0.37;72.44;99380.53;5183816;28;20061;-80
2022/01/07 02:16:10;;;;;;;43.55;18.88;;;;;;;-0.26;71.43;99383.56;5153119;28;20145;-82
2022/01/07 02:19:00;;;;;;;37.33;18.80;;;;;;;-0.29;71.92;99375.84;5156869;28;20475;-81
2022/01/07 02:21:51;;;;;;;39.75;18.98;;;;;;;-0.38;72.36;99380.63;5162946;28;20092;-81
2022/01/07 02:24:41;;;;;;;44.60;20.52;;;;;;;-0.46;71.95;99396.59;5187156;28;20135;-82
2022/01/07 02:27:36;;;;;;;42.33;20.02;;;;;;;-0.64;71.67;99382.56;5163626;28;20100;-81
2022/01/07 02:30:30;;;;;;;45.60;20.00;;;;;;;-0.45;72.38;99367.00;5170636;28;20140;-81
2022/01/07 02:33:20;;;;;;;41.85;20.40;;;;;;;-0.82;72.50;99373.75;5169757;28;20064;-81
2022/01/07 02:36:11;;;;;;;46.55;20.63;;;;;;;-0.61;73.42;99398.06;5156480;28;20056;-81
2022/01/07 02:39:02;;;;;;;40.35;20.17;;;;;;;-0.43;72.07;99372.13;5170502;28;20042;-80
2022/01/07 02:41:52;;;;;;;37.47;20.08;;;;;;;-0.72;72.82;99371.63;5164656;28;20050;-80
2022/01/07 02:44:42;;;;;;;38.47;19.10;;;;;;;-0.48;71.49;99364.53;5165955;28;20098;-81
2022/01/07 02:47:40;;;;;;;41.38;20.02;;;;;;;-0.66;72.07;99362.69;5170939;28;20147;-81
2022/01/07 02:50:36;;;;;;;44.55;20.17;;;;;;;-0.51;71.60;99381.13;5157370;28;20046;-81
2022/01/07 02:53:27;;;;;;;42.65;20.27;;;;;;;-0.56;72.41;99375.28;5171474;28;20135;-82
2022/01/07 02:56:18;;;;;;;39.25;18.70;;;;;;;-0.73;72.08;99389.00;5167691;28;20069;-82
2022/01/07 02:59:09;;;;;;;37.20;19.02;;;;;;;-0.78;73.48;99374.47;5147888;28;20079;-81
2022/01/07 03:01:59;;;;;;;36.58;18.75;;;;;;;-0.76;73.08;99385.69;5170272;28;20534;-82
2022/01/07 03:04:50;;;;;;;40.95;18.58;;;;;;;-1.00;73.57;99379.72;5164013;28;20077;-82
2022/01/07 03:07:42;;;;;;;41.03;17.60;;;;;;;-1.06;73.26;99378.22;5170423;28;20080;-82
2022/01/07 03:10:33;;;;;;;38.97;20.10;;;;;;;-0.89;73.45;99387.94;5169557;28;20503;-82
2022/01/07 03:13:23;;;;;;;45.28;18.45;;;;;;;-0.70;72.13;99382.81;5169676;28;20528;-82
2022/01/07 03:16:13;;;;;;;43.13;16.85;;;;;;;-0.54;71.69;99390.84;5173397;28;20053;-81
2022/01/07 03:19:04;;;;;;;39.40;16.80;;;;;;;-0.63;71.10;99384.28;5166223;28;20049;-81
2022/01/07 03:21:54;;;;;;;37.83;16.45;;;;;;;-0.64;71.22;99385.16;5157466;28;20041;-80
2022/01/07 03:24:44;;;;;;;38.83;16.25;;;;;;;-0.70;70.64;99382.81;5176291;28;20045;-81
2022/01/07 03:27:34;;;;;;;35.10;16.45;;;;;;;-0.69;70.97;99384.53;5168937;28;20136;-81
2022/01/07 03:30:24;;;;;;;38.03;16.25;;;;;;;-0.78;71.60;99397.91;5169434;28;20052;-81
2022/01/07 03:33:15;;;;;;;36.45;15.98;;;;;;;-0.87;71.59;99362.69;5140908;28;20116;-82
2022/01/07 03:36:05;;;;;;;36.28;16.73;;;;;;;-0.72;71.16;99380.28;5153389;28;20060;-81
2022/01/07 03:38:57;;;;;;;36.42;16.65;;;;;;;-0.55;71.11;99371.75;5153391;28;20038;-81
2022/01/07 03:41:47;;;;;;;47.65;18.15;;;;;;;-0.34;71.32;99395.19;5167609;28;20053;-80
2022/01/07 03:44:37;;;;;;;40.75;17.63;;;;;;;-0.42;71.33;99350.41;5155279;28;20050;-82
2022/01/07 03:47:27;;;;;;;40.35;16.00;;;;;;;-0.36;71.33;99360.56;5159987;28;20409;-82
2022/01/07 03:50:20;;;;;;;36.80;16.05;;;;;;;-0.42;72.19;99358.22;5175806;28;20113;-82
2022/01/07 03:53:10;;;;;;;35.70;15.95;;;;;;;-0.29;72.89;99359.38;5149777;28;20146;-83
2022/01/07 03:56:00;;;;;;;40.25;16.67;;;;;;;0.12;71.10;99357.53;5159241;28;20180;-83
2022/01/07 03:58:50;;;;;;;41.58;16.20;;;;;;;0.04;73.08;99369.25;5178700;28;20044;-81
2022/01/07 04:01:40;;;;;;;37.75;16.63;;;;;;;0.31;70.96;99360.16;5178716;28;20060;-82
2022/01/07 04:04:30;;;;;;;34.65;16.60;;;;;;;-0.09;73.01;99353.28;5177571;28;20052;-82
2022/01/07 04:07:21;;;;;;;37.83;15.95;;;;;;;0.15;72.57;99356.56;5165604;28;20049;-83
2022/01/07 04:10:11;;;;;;;38.58;15.82;;;;;;;-0.09;71.82;99343.72;5175833;28;20411;-81
2022/01/07 04:13:03;;;;;;;35.30;16.55;;;;;;;0.18;72.62;99352.03;5162837;28;20045;-83
2022/01/07 04:15:53;;;;;;;36.85;16.02;;;;;;;0.26;70.18;99349.06;5156971;28;20515;-81
2022/01/07 04:18:43;;;;;;;40.80;15.68;;;;;;;-0.08;72.50;99354.97;5172724;28;20531;-82
2022/01/07 04:21:33;;;;;;;40.45;17.27;;;;;;;0.52;70.55;99354.84;5146399;28;20139;-81
2022/01/07 04:24:24;;;;;;;40.40;17.55;;;;;;;-0.12;71.31;99332.56;5156939;28;20184;-81
2022/01/07 04:27:14;;;;;;;33.80;16.20;;;;;;;0.26;71.72;99369.94;5160593;28;20057;-81
2022/01/07 04:30:05;;;;;;;31.88;15.77;;;;;;;0.77;69.15;99375.44;5172933;28;20049;-81
2022/01/07 04:32:56;;;;;;;35.58;15.77;;;;;;;0.41;71.31;99373.63;5154504;28;20049;-80
2022/01/07 04:35:47;;;;;;;36.35;15.02;;;;;;;0.36;70.73;99357.31;5169423;28;20131;-80
2022/01/07 04:38:37;;;;;;;41.17;14.95;;;;;;;0.46;69.87;99362.06;5171822;28;20053;-81
2022/01/07 04:41:27;;;;;;;35.22;14.70;;;;;;;0.76;69.47;99377.19;5171671;28;20052;-80
2022/01/07 04:44:19;;;;;;;34.75;14.85;;;;;;;0.93;69.00;99366.78;5169277;28;20487;-81
2022/01/07 04:47:10;;;;;;;40.20;14.07;;;;;;;0.69;69.86;99378.38;5160176;28;20149;-80
2022/01/07 04:50:00;;;;;;;32.17;14.45;;;;;;;0.82;68.75;99376.88;5151110;28;20133;-81
2022/01/07 04:52:51;;;;;;;30.52;14.85;;;;;;;0.42;70.29;99364.88;5164582;28;20058;-81
2022/01/07 04:55:43;;;;;;;34.30;14.02;;;;;;;0.94;68.12;99376.31;5171276;28;20416;-80
2022/01/07 04:58:33;;;;;;;32.20;14.77;;;;;;;0.85;68.85;99387.19;5170817;28;20049;-80
2022/01/07 05:01:24;;;;;;;34.33;14.38;;;;;;;0.69;69.24;99370.56;5171259;28;20053;-80
2022/01/07 05:04:14;;;;;;;33.30;13.13;;;;;;;1.08;67.80;99380.84;5172206;28;20078;-81
2022/01/07 05:07:04;;;;;;;34.58;13.70;;;;;;;0.71;69.39;99394.84;5151316;28;20285;-80
2022/01/07 05:09:55;;;;;;;30.67;13.98;;;;;;;0.61;69.89;99393.56;5175385;28;20107;-80
2022/01/07 05:12:45;;;;;;;36.00;13.93;;;;;;;0.56;69.90;99367.69;5152612;28;20588;-80
2022/01/07 05:15:36;;;;;;;28.92;13.52;;;;;;;0.61;69.25;99383.97;5138196;28;20108;-81
2022/01/07 05:18:26;;;;;;;27.23;13.25;;;;;;;0.39;69.25;99370.22;5167763;28;20190;-81
2022/01/07 05:21:16;;;;;;;26.83;12.95;;;;;;;0.41;69.03;99355.38;5157599;28;20049;-81
2022/01/07 05:24:07;;;;;;;26.35;13.40;;;;;;;0.28;69.44;99383.78;5171032;28;20101;-81
2022/01/07 05:26:57;;;;;;;28.00;12.23;;;;;;;0.11;69.67;99358.47;5152559;28;20046;-82
2022/01/07 05:29:47;;;;;;;22.80;11.32;;;;;;;0.01;69.42;99361.56;5164887;28;20184;-83
2022/01/07 05:32:37;;;;;;;25.83;12.02;;;;;;;0.13;70.16;99376.63;5190035;28;20068;-82
2022/01/07 05:35:29;;;;;;;26.48;11.88;;;;;;;0.18;69.73;99366.84;5185090;28;20061;-81
2022/01/07 05:38:19;;;;;;;32.65;12.57;;;;;;;0.31;69.40;99372.34;5173030;28;20049;-82
2022/01/07 05:41:09;;;;;;;25.92;12.27;;;;;;;0.27;70.50;99357.78;5156930;28;20181;-82
2022/01/07 05:44:00;;;;;;;23.15;10.98;;;;;;;0.52;69.17;99347.03;5170121;28;20838;-82
2022/01/07 05:46:50;;;;;;;25.20;11.75;;;;;;;0.53;68.56;99330.44;5158309;28;20116;-82
2022/01/07 05:49:40;;;;;;;37.35;12.27;;;;;;;1.28;66.73;99358.97;5154958;28;20052;-82
2022/01/07 05:52:31;;;;;;;27.52;11.38;;;;;;;0.90;67.74;99332.16;5161936;28;20060;-82
2022/01/07 05:55:21;;;;;;;24.05;10.90;;;;;;;0.97;67.47;99320.50;5169534;28;20061;-82
2022/01/07 05:58:11;;;;;;;27.50;10.70;;;;;;;1.02;67.74;99346.38;5172414;28;20054;-82
2022/01/07 06:01:04;;;;;;;23.77;11.75;;;;;;;0.75;68.79;99323.28;5190184;28;20062;-82
2022/01/07 06:03:55;;;;;;;27.50;10.75;;;;;;;0.66;69.31;99331.56;5180634;28;20062;-82
2022/01/07 06:06:45;;;;;;;30.45;12.20;;;;;;;0.65;68.53;99316.81;5146826;28;20128;-82
2022/01/07 06:09:35;;;;;;;24.15;10.90;;;;;;;0.80;67.54;99323.94;5170419;28;20049;-83
2022/01/07 06:12:26;;;;;;;24.17;10.45;;;;;;;0.91;68.26;99337.28;5164119;28;20052;-81
2022/01/07 06:15:17;;;;;;;23.45;10.80;;;;;;;0.87;67.84;99322.69;5189071;28;20057;-83
2022/01/07 06:18:07;;;;;;;22.90;10.73;;;;;;;0.83;68.73;99338.56;5188622;28;20057;-81
2022/01/07 06:20:57;;;;;;;24.33;10.50;;;;;;;0.81;68.70;99341.28;5165870;28;20053;-81
2022/01/07 06:23:47;;;;;;;26.65;10.90;;;;;;;0.65;69.04;99304.63;5166454;28;20475;-82
2022/01/07 06:26:38;;;;;;;27.38;10.05;;;;;;;0.89;68.51;99323.50;5135837;28;20144;-82
2022/01/07 06:29:28;;;;;;;26.67;10.70;;;;;;;1.14;66.87;99335.31;5179905;28;20041;-82
2022/01/07 06:32:19;;;;;;;23.88;11.57;;;;;;;0.77;68.31;99313.63;5163611;28;20049;-82
2022/01/07 06:35:10;;;;;;;24.08;10.63;;;;;;;1.09;67.03;99319.03;5149306;28;20124;-82
2022/01/07 06:38:00;;;;;;;24.02;10.95;;;;;;;1.38;65.79;99314.94;5164277;28;20061;-82
2022/01/07 06:40:50;;;;;;;21.50;9.73;;;;;;;1.13;67.44;99325.81;5161597;23;20044;-67
2022/01/07 06:43:40;;;;;;;21.98;10.95;;;;;;;1.38;65.50;99321.00;5147011;28;20614;-68
2022/01/07 06:46:30;;;;;;;24.25;10.90;;;;;;;0.97;67.17;99335.31;5149805;28;20684;-67
2022/01/07 06:49:20;;;;;;;21.50;10.73;;;;;;;1.27;67.16;99328.56;5141532;28;20520;-67
2022/01/07 06:52:11;;;;;;;26.88;10.75;;;;;;;1.47;65.51;99324.09;5141264;28;20055;-67
2022/01/07 06:55:01;;;;;;;24.88;10.05;;;;;;;1.58;65.10;99329.59;5136288;28;20059;-68
2022/01/07 06:57:51;;;;;;;24.10;10.68;;;;;;;1.28;67.20;99319.78;5107325;29;20168;-67
2022/01/07 07:00:41;;;;;;;27.95;11.50;;;;;;;1.36;65.96;99319.44;5138334;28;20043;-67
2022/01/07 07:03:40;;;;;;;26.45;11.55;;;;;;;1.27;66.38;99314.66;5127606;28;20047;-67
2022/01/07 07:06:30;;;;;;;26.02;11.73;;;;;;;1.03;67.45;99308.91;5137553;28;20054;-67
2022/01/07 07:09:20;;;;;;;27.27;11.43;;;;;;;1.18;67.72;99302.91;5139588;28;20415;-67
2022/01/07 07:12:12;;;;;;;25.63;11.68;;;;;;;1.29;66.78;99302.34;5140920;28;20117;-67
2022/01/07 07:15:03;;;;;;;23.80;11.88;;;;;;;1.28;66.58;99282.38;5131539;28;20054;-68
2022/01/07 07:17:53;;;;;;;27.55;11.38;;;;;;;1.19;66.77;99278.47;5134887;28;20117;-68
2022/01/07 07:20:44;;;;;;;28.60;11.85;;;;;;;1.05;67.13;99278.31;5126631;28;20411;-68
2022/01/07 07:23:34;;;;;;;28.35;11.32;;;;;;;1.52;67.55;99288.09;5135371;28;20054;-68
2022/01/07 07:26:24;;;;;;;26.40;11.25;;;;;;;1.46;67.46;99291.03;5118246;28;20066;-68
2022/01/07 07:29:14;;;;;;;26.92;12.43;;;;;;;1.69;66.81;99282.00;5143871;28;20045;-69
2022/01/07 07:32:08;;;;;;;30.10;12.02;;;;;;;1.87;65.63;99275.81;5142962;28;20657;-68
2022/01/07 07:35:13;;;;;;;24.92;11.63;;;;;;;1.92;65.14;99270.31;5123315;28;20054;-68
2022/01/07 07:38:03;;;;;;;28.33;12.05;;;;;;;1.60;65.58;99262.44;5126431;28;20054;-68
2022/01/07 07:40:53;;;;;;;26.67;12.93;;;;;;;1.99;65.40;99276.94;5134467;28;20043;-68
2022/01/07 07:43:46;;;;;;;26.08;12.63;;;;;;;2.01;65.24;99278.50;5139024;28;20077;-68
2022/01/07 07:46:38;;;;;;;29.90;12.13;;;;;;;1.90;65.43;99265.19;5136742;28;20705;-68
2022/01/07 07:49:29;;;;;;;24.15;11.82;;;;;;;2.32;64.63;99276.84;5124414;28;20054;-68
2022/01/07 07:52:19;;;;;;;27.83;11.45;;;;;;;1.99;65.43;99258.63;5129908;28;20066;-68
2022/01/07 07:55:09;;;;;;;28.58;12.98;;;;;;;2.22;64.53;99267.78;5114437;28;20597;-69
2022/01/07 07:58:00;;;;;;;26.25;13.15;;;;;;;1.97;65.16;99255.22;5131388;28;20043;-68
2022/01/07 08:00:51;;;;;;;28.65;12.50;;;;;;;2.38;64.32;99267.78;5141544;28;20121;-68
2022/01/07 08:03:41;;;;;;;30.75;12.43;;;;;;;2.41;63.48;99265.00;5132492;28;20708;-69
2022/01/07 08:06:31;;;;;;;27.27;12.48;;;;;;;2.45;64.22;99249.06;5123848;28;20058;-68
2022/01/07 08:09:21;;;;;;;38.42;16.63;;;;;;;2.42;63.86;99256.22;5133583;28;20062;-68
2022/01/07 08:12:27;;;;;;;27.70;12.10;;;;;;;2.50;63.77;99256.66;5138992;28;20612;-69
2022/01/07 08:18:37;;;;;;;27.63;11.35;;;;;;;2.59;63.79;99245.66;5121415;28;20528;-69
2022/01/07 08:21:29;;;;;;;29.48;11.93;;;;;;;2.54;64.13;99252.91;5139683;28;20062;-70
2022/01/07 08:24:19;;;;;;;22.38;10.30;;;;;;;2.30;64.11;99231.59;5135193;28;20523;-72
2022/01/07 08:27:10;;;;;;;24.48;11.70;;;;;;;2.54;63.53;99250.31;5125157;28;20047;-72
2022/01/07 08:30:25;;;;;;;29.38;11.55;;;;;;;2.46;65.02;99239.44;5133563;28;20068;-71
2022/01/07 08:36:30;;;;;;;25.10;10.88;;;;;;;2.44;63.72;99209.88;5127879;28;20556;-72
2022/01/07 08:39:22;;;;;;;22.38;10.75;;;;;;;2.57;64.90;99239.66;5139624;28;20130;-71
2022/01/07 08:42:12;;;;;;;24.80;10.07;;;;;;;2.74;64.01;99243.94;5139927;28;20162;-72
2022/01/07 08:45:02;;;;;;;21.40;10.43;;;;;;;2.53;65.46;99253.88;5115635;28;20186;-74
2022/01/07 08:47:52;;;;;;;23.00;10.80;;;;;;;2.55;64.85;99241.50;5130651;28;20150;-75
2022/01/07 08:50:44;;;;;;;21.48;10.35;;;;;;;2.66;64.75;99231.28;5137562;28;20062;-71
2022/01/07 08:53:34;;;;;;;22.55;10.77;;;;;;;2.94;63.09;99242.78;5139760;28;20422;-74
2022/01/07 08:56:25;;;;;;;22.60;10.73;;;;;;;2.95;62.42;99240.09;5127749;28;20174;-70
2022/01/07 08:59:15;;;;;;;22.98;10.25;;;;;;;3.17;61.90;99238.81;5132197;28;20186;-74
2022/01/07 09:02:05;;;;;;;21.67;10.60;;;;;;;3.33;60.98;99236.94;5136128;28;20252;-70
2022/01/07 09:04:56;;;;;;;24.48;11.70;;;;;;;2.90;63.18;99204.59;5124317;28;20075;-69
2022/01/07 09:07:46;;;;;;;20.10;11.40;;;;;;;3.00;62.97;99232.78;5123926;28;20055;-69
2022/01/07 09:10:36;;;;;;;21.80;10.82;;;;;;;3.11;61.82;99229.50;5128708;28;20058;-69
2022/01/07 09:13:27;;;;;;;19.45;9.85;;;;;;;3.00;62.54;99231.94;5126970;28;20184;-68
2022/01/07 09:16:19;;;;;;;22.80;10.18;;;;;;;2.76;63.53;99235.06;5124269;28;20597;-69
2022/01/07 09:19:09;;;;;;;18.23;9.90;;;;;;;2.55;63.78;99228.41;5128463;28;20049;-69
2022/01/07 09:21:59;;;;;;;19.67;9.77;;;;;;;2.77;63.40;99230.66;5128167;28;20537;-69
2022/01/07 09:24:49;;;;;;;17.77;8.70;;;;;;;2.52;64.26;99220.78;5126912;28;20058;-69
2022/01/07 09:27:40;;;;;;;18.92;9.63;;;;;;;2.42;64.06;99224.81;5123138;28;20087;-69
2022/01/07 09:30:32;;;;;;;17.95;9.43;;;;;;;2.54;64.26;99224.97;5118423;28;20533;-69
2022/01/07 09:33:22;;;;;;;21.55;9.35;;;;;;;2.26;63.58;99220.47;5124105;28;20074;-69
2022/01/07 09:36:33;;;;;;;20.98;9.52;;;;;;;2.14;64.28;99222.91;5130236;28;20069;-69
2022/01/07 09:39:23;;;;;;;19.17;9.90;;;;;;;2.14;65.04;99223.75;5130623;28;20497;-69
2022/01/07 09:42:13;;;;;;;19.38;9.57;;;;;;;2.11;64.99;99216.06;5124747;28;20062;-69
2022/01/07 09:45:04;;;;;;;23.65;10.23;;;;;;;2.54;64.35;99218.88;5126671;28;20057;-69
2022/01/07 09:47:56;;;;;;;20.58;9.82;;;;;;;2.45;65.34;99214.19;5140870;28;20055;-69
2022/01/07 09:50:46;;;;;;;21.70;10.57;;;;;;;2.10;65.58;99220.47;5122172;28;20065;-69
2022/01/07 09:53:36;;;;;;;24.20;10.15;;;;;;;2.04;65.15;99206.88;5121323;28;20058;-69
2022/01/07 09:56:29;;;;;;;26.50;10.40;;;;;;;1.98;65.87;99202.00;5124090;28;20110;-69
2022/01/07 09:59:20;;;;;;;20.30;9.40;;;;;;;2.51;64.94;99219.06;5132962;28;20072;-68
2022/01/07 10:02:10;;;;;;;20.85;9.73;;;;;;;2.30;63.81;99211.50;5130571;28;20082;-69
2022/01/07 10:05:16;;;;;;;28.08;10.82;;;;;;;2.44;64.75;99215.13;5129065;28;20409;-70
2022/01/07 10:08:21;;;;;;;18.38;9.65;;;;;;;2.88;63.55;99219.56;5107491;28;20127;-70
2022/01/07 10:11:20;;;;;;;17.77;9.52;;;;;;;2.40;63.94;99200.53;5123992;28;20139;-69
2022/01/07 10:14:21;;;;;;;20.25;9.73;;;;;;;2.77;63.88;99215.78;5133305;28;20055;-69
2022/01/07 10:17:13;;;;;;;18.55;9.55;;;;;;;2.38;65.27;99211.06;5136030;28;20500;-69
2022/01/07 10:20:04;;;;;;;20.98;9.98;;;;;;;2.74;64.55;99212.50;5137126;28;20054;-70
2022/01/07 10:22:58;;;;;;;28.55;11.05;;;;;;;2.59;65.72;99204.63;5127950;28;20050;-69
2022/01/07 10:25:52;;;;;;;23.65;10.43;;;;;;;2.86;65.19;99203.94;5129435;28;20045;-69
2022/01/07 10:28:43;;;;;;;;;;;;;;;1.94;69.55;99200.47;5128661;28;20050;-69
2022/01/07 10:31:34;;;;;;;27.25;11.27;;;;;;;1.43;71.67;99189.31;5132973;28;19981;-69
2022/01/07 10:34:24;;;;;;;23.80;11.18;;;;;;;0.94;73.54;99177.03;5139650;28;20085;-69
2022/01/07 10:37:14;;;;;;;24.40;11.77;;;;;;;1.09;74.08;99167.56;5138244;28;20209;-69
2022/01/07 10:40:26;;;;;;;28.70;12.38;;;;;;;1.46;73.47;99181.28;5137722;28;20053;-69
2022/01/07 10:43:32;;;;;;;23.83;12.43;;;;;;;1.23;74.05;99188.59;5115689;28;20381;-69
2022/01/07 10:46:25;;;;;;;26.58;13.05;;;;;;;1.02;75.62;99176.63;5135350;28;20101;-68
2022/01/07 10:49:16;;;;;;;30.90;13.63;;;;;;;1.09;75.59;99175.41;5135949;28;20050;-69
2022/01/07 10:52:05;;;;;;;34.85;13.35;;;;;;;1.13;75.40;99169.94;5132204;28;20054;-70
2022/01/07 10:55:10;;;;;;;31.92;13.38;;;;;;;1.15;74.52;99169.84;5130512;28;20053;-69
2022/01/07 10:58:01;;;;;;;32.67;13.52;;;;;;;1.59;73.18;99170.13;5128674;28;20050;-69
2022/01/07 11:00:52;;;;;;;33.03;14.02;;;;;;;1.47;73.68;99165.53;5132208;28;20161;-67
2022/01/07 11:03:42;;;;;;;28.58;13.40;;;;;;;1.08;75.86;99165.88;5130377;28;20069;-70
2022/01/07 11:06:32;;;;;;;29.67;13.95;;;;;;;0.68;76.08;99136.59;5110898;28;20095;-71
2022/01/07 11:09:23;;;;;;;32.80;15.23;;;;;;;0.83;76.88;99166.28;5130781;28;20046;-70
2022/01/07 11:12:15;;;;;;;38.05;16.02;;;;;;;1.04;75.34;99162.59;5116594;28;20105;-70
2022/01/07 11:15:08;;;;;;;31.35;15.35;;;;;;;1.35;74.67;99166.19;5136475;28;20722;-69
2022/01/07 11:17:59;;;;;;;33.47;15.65;;;;;;;1.29;76.12;99163.91;5116524;28;20054;-71
2022/01/07 11:20:49;;;;;;;39.13;16.23;;;;;;;0.74;77.18;99141.53;5127540;28;20039;-68
2022/01/07 11:23:41;;;;;;;30.13;15.35;;;;;;;1.01;77.13;99148.84;5134788;28;20555;-70
2022/01/07 11:26:31;;;;;;;48.88;19.23;;;;;;;1.32;75.84;99155.91;5118355;28;20090;-71
2022/01/07 11:29:22;;;;;;;35.70;15.75;;;;;;;1.86;74.21;99153.84;5135402;28;20061;-70
2022/01/07 11:32:33;;;;;;;35.95;15.93;;;;;;;1.53;75.53;99141.69;5138785;28;20054;-69
2022/01/07 11:35:23;;;;;;;32.80;16.10;;;;;;;1.63;73.46;99144.66;5137269;28;20477;-67
2022/01/07 11:38:30;;;;;;;39.63;16.50;;;;;;;1.27;76.06;99137.88;5140042;28;20069;-67
2022/01/07 11:41:50;;;;;;;36.47;17.70;;;;;;;1.13;76.64;99107.28;5114509;28;20047;-69
2022/01/07 11:44:40;;;;;;;37.55;16.10;;;;;;;1.61;74.80;99134.28;5139983;28;20117;-67
2022/01/07 11:47:30;;;;;;;36.20;15.38;;;;;;;1.44;76.22;99136.97;5136223;28;20054;-67
2022/01/07 11:50:20;;;;;;;34.58;15.95;;;;;;;1.51;75.79;99133.09;5140677;28;20082;-68
2022/01/07 11:53:10;;;;;;;35.83;16.05;;;;;;;1.35;75.58;99101.72;5140169;28;20065;-69
2022/01/07 11:56:01;;;;;;;35.72;15.38;;;;;;;1.74;74.32;99112.69;5135683;28;20119;-68
2022/01/07 11:58:57;;;;;;;35.03;16.00;;;;;;;1.58;75.02;99121.38;5137554;28;20046;-67
2022/01/07 12:02:02;;;;;;;35.63;16.20;;;;;;;2.00;74.77;99119.06;5123734;28;20151;-68
2022/01/07 12:04:52;;;;;;;29.98;15.32;;;;;;;2.00;73.81;99125.16;5130683;28;20532;-68
2022/01/07 12:07:48;;;;;;;38.40;16.02;;;;;;;2.43;72.04;99129.69;5125393;28;20050;-67
2022/01/07 12:10:38;;;;;;;40.47;15.95;;;;;;;2.33;72.77;99124.16;5128413;28;20040;-67
2022/01/07 12:13:36;;;;;;;31.27;15.50;;;;;;;2.26;73.64;99121.03;5122571;28;20190;-67
2022/01/07 12:16:31;;;;;;;34.53;14.85;;;;;;;2.35;72.20;99115.28;5133624;28;20046;-69
2022/01/07 12:19:36;;;;;;;31.85;14.82;;;;;;;2.54;71.70;99111.56;5117289;28;20058;-67
2022/01/07 12:22:28;;;;;;;30.63;14.85;;;;;;;2.15;72.56;99097.25;5137276;28;20435;-68
2022/01/07 12:25:18;;;;;;;30.92;14.30;;;;;;;2.35;73.54;99104.81;5139702;28;20603;-70
2022/01/07 12:28:08;;;;;;;28.38;13.98;;;;;;;2.13;73.31;99088.69;5124459;28;20641;-68
2022/01/07 12:31:07;;;;;;;35.50;14.25;;;;;;;2.29;73.52;99079.00;5141202;28;20560;-68
2022/01/07 12:33:59;;;;;;;29.13;13.80;;;;;;;2.30;72.54;99058.91;5131119;28;20133;-70
2022/01/07 12:37:05;;;;;;;32.85;14.30;;;;;;;2.63;71.35;99071.78;5141068;28;20053;-67
2022/01/07 12:39:58;;;;;;;26.50;13.85;;;;;;;2.58;71.03;99073.81;5125104;28;20422;-69
2022/01/07 12:42:48;;;;;;;31.45;13.63;;;;;;;2.54;71.40;99069.69;5132986;28;20053;-70
2022/01/07 12:45:38;;;;;;;25.05;12.27;;;;;;;2.23;72.20;99066.28;5117954;28;20045;-69
2022/01/07 12:48:38;;;;;;;29.70;13.82;;;;;;;2.67;71.69;99059.34;5136475;28;20082;-68
2022/01/07 12:51:31;;;;;;;32.95;13.25;;;;;;;2.92;70.66;99059.53;5130844;28;20497;-70
2022/01/07 12:54:21;;;;;;;27.63;12.87;;;;;;;2.77;71.04;99029.03;5130686;28;20186;-71
2022/01/07 12:57:23;;;;;;;23.85;12.65;;;;;;;2.43;72.42;99046.78;5120292;28;20290;-68
2022/01/07 13:00:27;;;;;;;28.63;12.65;;;;;;;2.43;73.38;99044.16;5128272;28;20114;-69
2022/01/07 13:03:25;;;;;;;23.98;11.75;;;;;;;2.55;71.65;99034.72;5120759;28;20129;-69
2022/01/07 13:06:15;;;;;;;22.45;11.38;;;;;;;2.32;73.03;99031.72;5138789;28;20147;-69
2022/01/07 13:09:06;;;;;;;28.17;12.70;;;;;;;2.91;70.92;99009.84;5139301;28;20693;-69
2022/01/07 13:11:58;;;;;;;28.00;12.43;;;;;;;2.69;71.46;99021.66;5097945;28;20568;-69
2022/01/07 13:14:48;;;;;;;28.80;12.18;;;;;;;2.54;71.82;99020.81;5124158;28;20589;-69
2022/01/07 13:17:38;;;;;;;25.77;12.32;;;;;;;3.05;70.81;99005.47;5122155;28;20051;-69
2022/01/07 13:20:29;;;;;;;27.00;13.02;;;;;;;3.04;70.77;99005.53;5141753;28;20050;-69
2022/01/07 13:23:24;;;;;;;32.30;13.63;;;;;;;2.77;70.91;99000.25;5121726;28;20126;-73
2022/01/07 13:26:15;;;;;;;30.52;12.77;;;;;;;3.19;69.71;99007.19;5118807;28;20071;-68